KBYI

Burley Municipal Airport

Burley, Idaho, USA
METAR KBYI 180053Z AUTO 02004KT 10SM CLR 16/M01 A3018 RMK AO2 SLP214 T01561011
Observed Flight Rules
Oct-18 @ 00:53 UTC (32 minutes ago) Visual Flight Rules
Wind Visibility Clouds
20° at 4 knots 10 miles
  • Clear skies
Temperatures Readings
Current 16°C / 61°F
Dewpoint -1°C / 30°F
Humidity 31%
Altimeter 30.18" Hg
Pressure 1021.4 hPa
Elevation 1264
METAR KBYI 180053Z AUTO 02004KT 10SM CLR 16/M01 A3018 RMK AO2 SLP214 T01561011
Observed Flight Rules
Oct-18 @ 00:53 UTC
(32 minutes ago)
VFR
Wind Visibility
20° at 4 knots 10 miles
Clouds
  • Clear skies
Temperature Dewpoint
16°C / 61°F -1°C / 30°F
Humidity Altimeter Pressure
31% 30.18" Hg 1021.4 hPa